createdAt,value
2019-03-04T00:00:53.351Z,989.12
2019-03-04T00:01:53.309Z,989.03
2019-03-04T00:02:53.300Z,989.04
2019-03-04T00:03:53.304Z,988.96
2019-03-04T00:04:53.273Z,989.02
2019-03-04T00:05:53.262Z,989.00
2019-03-04T00:06:53.273Z,989.09
2019-03-04T00:07:53.260Z,989.05
2019-03-04T00:08:53.271Z,989.06
2019-03-04T00:09:53.224Z,989.10
2019-03-04T00:10:53.207Z,989.11
2019-03-04T00:11:53.215Z,989.16
2019-03-04T00:12:53.192Z,989.11
2019-03-04T00:13:53.197Z,989.17
2019-03-04T00:14:53.167Z,989.14
2019-03-04T00:15:53.173Z,989.19
2019-03-04T00:16:53.162Z,989.13
2019-03-04T00:17:53.178Z,989.12
2019-03-04T00:18:53.125Z,989.05
2019-03-04T00:19:53.111Z,989.07
2019-03-04T00:20:53.143Z,989.05
2019-03-04T00:21:53.125Z,989.05
2019-03-04T00:22:53.091Z,989.11
2019-03-04T00:23:53.064Z,989.11
2019-03-04T00:24:53.068Z,989.08
2019-03-04T00:25:53.051Z,989.09
2019-03-04T00:26:53.058Z,989.04
2019-03-04T00:27:53.039Z,989.00
2019-03-04T00:28:53.014Z,989.04
2019-03-04T00:29:53.045Z,988.93
2019-03-04T00:30:52.988Z,988.87
2019-03-04T00:31:52.981Z,988.83
2019-03-04T00:32:53.002Z,988.90
2019-03-04T00:33:52.964Z,988.89
2019-03-04T00:34:52.950Z,988.89
2019-03-04T00:35:52.943Z,988.83
2019-03-04T00:36:52.934Z,988.80
2019-03-04T00:37:52.982Z,988.75
2019-03-04T00:38:52.908Z,988.82
2019-03-04T00:39:52.896Z,988.82
2019-03-04T00:40:52.880Z,988.79
2019-03-04T00:41:52.872Z,988.81
2019-03-04T00:42:52.864Z,988.73
2019-03-04T00:43:52.889Z,988.72
2019-03-04T00:44:52.837Z,988.72
2019-03-04T00:45:52.823Z,988.65
2019-03-04T00:46:52.846Z,988.68
2019-03-04T00:47:52.822Z,988.52
2019-03-04T00:48:52.813Z,988.61
2019-03-04T00:49:52.796Z,988.54
2019-03-04T00:50:52.768Z,988.48
2019-03-04T00:51:52.757Z,988.48
2019-03-04T00:52:52.753Z,988.51
2019-03-04T00:53:52.773Z,988.47
2019-03-04T00:54:52.740Z,988.44
2019-03-04T00:55:52.722Z,988.37
2019-03-04T00:56:52.719Z,988.30
2019-03-04T00:57:52.696Z,988.27
2019-03-04T00:58:52.708Z,988.22
2019-03-04T00:59:52.696Z,988.19
2019-03-04T01:00:52.680Z,988.19
2019-03-04T01:01:52.660Z,988.15
2019-03-04T01:02:52.639Z,988.12
2019-03-04T01:03:52.633Z,988.17
2019-03-04T01:04:52.635Z,988.12
2019-03-04T01:05:52.616Z,988.01
2019-03-04T01:06:52.599Z,987.97
2019-03-04T01:07:52.604Z,987.86
2019-03-04T01:08:52.582Z,987.80
2019-03-04T01:09:52.598Z,987.89
2019-03-04T01:10:52.560Z,987.87
2019-03-04T01:11:52.537Z,987.81
2019-03-04T01:12:52.535Z,987.86
2019-03-04T01:13:52.534Z,987.85
2019-03-04T01:14:52.513Z,987.88
2019-03-04T01:15:52.521Z,987.87
2019-03-04T01:16:52.489Z,987.82
2019-03-04T01:17:52.479Z,987.84
2019-03-04T01:18:52.478Z,987.82
2019-03-04T01:19:52.481Z,987.83
2019-03-04T01:20:52.476Z,987.84
2019-03-04T01:21:52.440Z,987.84
2019-03-04T01:22:52.421Z,987.74
2019-03-04T01:23:52.409Z,987.73
2019-03-04T01:24:52.403Z,987.79
2019-03-04T01:25:52.429Z,987.81
2019-03-04T01:26:52.374Z,987.76
2019-03-04T01:27:52.369Z,987.80
2019-03-04T01:28:52.363Z,987.76
2019-03-04T01:29:52.351Z,987.80
2019-03-04T01:30:52.338Z,987.83
2019-03-04T01:31:52.348Z,987.82
2019-03-04T01:32:52.310Z,987.85
2019-03-04T01:33:52.303Z,987.89
2019-03-04T01:34:52.306Z,987.93
2019-03-04T01:35:52.322Z,987.96
2019-03-04T01:36:52.289Z,987.95
2019-03-04T01:37:52.254Z,987.99
2019-03-04T01:38:52.250Z,987.96
2019-03-04T01:39:52.258Z,987.93
2019-03-04T01:40:52.233Z,987.88
2019-03-04T01:41:52.239Z,987.82
2019-03-04T01:42:52.200Z,987.72
2019-03-04T01:43:52.189Z,987.77
2019-03-04T01:44:52.184Z,987.76
2019-03-04T01:45:52.173Z,987.75
2019-03-04T01:46:52.153Z,987.64
2019-03-04T01:47:52.163Z,987.78
2019-03-04T01:48:52.147Z,987.60
2019-03-04T01:49:52.128Z,987.62
2019-03-04T01:50:52.111Z,987.58
2019-03-04T01:51:52.105Z,987.53
2019-03-04T01:52:52.112Z,987.58
2019-03-04T01:53:52.079Z,987.56
2019-03-04T01:54:52.082Z,987.58
2019-03-04T01:55:52.062Z,987.59
2019-03-04T01:56:52.047Z,987.63
2019-03-04T01:57:52.095Z,987.59
2019-03-04T01:58:52.030Z,987.58
2019-03-04T01:59:52.017Z,987.58
2019-03-04T02:00:52.025Z,987.58
2019-03-04T02:01:51.992Z,987.51
2019-03-04T02:02:52.014Z,987.56
2019-03-04T02:03:51.998Z,987.48
2019-03-04T02:04:51.962Z,987.49
2019-03-04T02:05:51.954Z,987.37
2019-03-04T02:06:51.943Z,987.43
2019-03-04T02:07:51.927Z,987.40
2019-03-04T02:08:51.943Z,987.47
2019-03-04T02:09:51.929Z,987.50
2019-03-04T02:10:51.895Z,987.57
2019-03-04T02:11:51.918Z,987.34
2019-03-04T02:12:51.872Z,987.64
2019-03-04T02:13:51.885Z,987.65
2019-03-04T02:14:51.857Z,987.76
2019-03-04T02:15:51.847Z,987.75
2019-03-04T02:16:51.868Z,987.74
2019-03-04T02:17:51.826Z,987.85
2019-03-04T02:18:51.841Z,987.78
2019-03-04T02:19:51.797Z,987.70
2019-03-04T02:20:51.786Z,987.59
2019-03-04T02:21:51.822Z,987.63
2019-03-04T02:22:51.774Z,987.61
2019-03-04T02:23:51.766Z,987.68
2019-03-04T02:24:51.769Z,987.65
2019-03-04T02:25:51.729Z,987.66
2019-03-04T02:26:51.725Z,987.53
2019-03-04T02:27:51.721Z,987.58
2019-03-04T02:28:51.706Z,987.53
2019-03-04T02:29:51.704Z,987.47
2019-03-04T02:30:51.679Z,987.51
2019-03-04T02:31:51.669Z,987.47
2019-03-04T02:32:51.669Z,987.54
2019-03-04T02:33:51.648Z,987.50
2019-03-04T02:34:51.669Z,987.36
2019-03-04T02:35:51.640Z,987.36
2019-03-04T02:36:51.618Z,987.25
2019-03-04T02:37:51.599Z,987.29
2019-03-04T02:38:51.608Z,987.28
2019-03-04T02:39:51.578Z,987.27
2019-03-04T02:40:51.588Z,987.18
2019-03-04T02:41:51.560Z,987.10
2019-03-04T02:42:51.547Z,987.07
2019-03-04T02:43:51.567Z,987.03
2019-03-04T02:44:51.536Z,986.96
2019-03-04T02:45:51.535Z,986.97
2019-03-04T02:46:51.532Z,986.95
2019-03-04T02:47:51.499Z,986.86
2019-03-04T02:48:51.501Z,986.88
2019-03-04T02:49:51.526Z,986.91
2019-03-04T02:50:51.485Z,986.86
2019-03-04T02:51:51.472Z,986.92
2019-03-04T02:52:51.477Z,986.86
2019-03-04T02:53:51.443Z,986.84
2019-03-04T02:54:51.424Z,986.76
2019-03-04T02:55:51.407Z,986.74
2019-03-04T02:56:51.496Z,986.71
2019-03-04T02:57:51.384Z,986.72
2019-03-04T02:58:51.384Z,986.66
2019-03-04T02:59:51.374Z,986.71
2019-03-04T03:00:51.361Z,986.71
2019-03-04T03:01:51.374Z,986.64
2019-03-04T03:02:51.341Z,986.53
2019-03-04T03:03:51.338Z,986.57
2019-03-04T03:04:51.329Z,986.48
2019-03-04T03:05:51.295Z,986.37
2019-03-04T03:06:51.287Z,986.34
2019-03-04T03:07:51.306Z,986.39
2019-03-04T03:08:51.286Z,986.37
2019-03-04T03:09:51.251Z,986.40
2019-03-04T03:10:51.250Z,986.41
2019-03-04T03:11:51.241Z,986.30
2019-03-04T03:12:51.245Z,986.29
2019-03-04T03:13:51.213Z,986.30
2019-03-04T03:14:51.210Z,986.35
2019-03-04T03:15:51.194Z,986.38
2019-03-04T03:16:51.192Z,986.37
2019-03-04T03:17:51.205Z,986.32
2019-03-04T03:18:51.158Z,986.27
2019-03-04T03:19:51.147Z,986.21
2019-03-04T03:20:51.144Z,986.27
2019-03-04T03:21:51.123Z,986.21
2019-03-04T03:22:51.127Z,986.24
2019-03-04T03:23:51.139Z,986.17
2019-03-04T03:24:51.088Z,986.20
2019-03-04T03:25:51.087Z,986.20
2019-03-04T03:26:51.074Z,986.16
2019-03-04T03:27:51.056Z,986.20
2019-03-04T03:28:51.074Z,986.16
2019-03-04T03:29:52.057Z,986.13
2019-03-04T03:30:51.023Z,986.12
2019-03-04T03:31:51.049Z,986.08
2019-03-04T03:32:51.016Z,986.13
2019-03-04T03:33:51.027Z,986.05
2019-03-04T03:34:50.992Z,985.99
2019-03-04T03:35:50.968Z,985.95
2019-03-04T03:36:50.963Z,986.03
2019-03-04T03:37:50.958Z,986.05
2019-03-04T03:38:51.088Z,986.00
2019-03-04T03:39:50.932Z,986.03
2019-03-04T03:40:50.914Z,985.99
2019-03-04T03:41:50.915Z,985.99
2019-03-04T03:42:50.901Z,986.01
2019-03-04T03:43:50.900Z,985.98
2019-03-04T03:44:50.895Z,985.89
2019-03-04T03:45:50.862Z,985.96
2019-03-04T03:46:50.855Z,985.94
2019-03-04T03:47:50.872Z,985.96
2019-03-04T03:48:50.843Z,985.89
2019-03-04T03:49:50.920Z,985.82
2019-03-04T03:50:50.826Z,985.85
2019-03-04T03:51:50.799Z,985.80
2019-03-04T03:52:50.795Z,985.78
2019-03-04T03:53:50.778Z,985.79
2019-03-04T03:54:50.790Z,985.80
2019-03-04T03:55:50.752Z,985.71
2019-03-04T03:56:50.747Z,985.68
2019-03-04T03:57:50.732Z,985.57
2019-03-04T03:58:50.734Z,985.55
2019-03-04T03:59:50.746Z,985.57
2019-03-04T04:00:50.699Z,985.50
2019-03-04T04:01:50.717Z,985.57
2019-03-04T04:02:50.675Z,985.54
2019-03-04T04:03:50.665Z,985.45
2019-03-04T04:04:50.657Z,985.45
2019-03-04T04:05:50.679Z,985.49
2019-03-04T04:06:50.643Z,985.46
2019-03-04T04:07:50.690Z,985.45
2019-03-04T04:08:50.642Z,985.32
2019-03-04T04:09:50.606Z,985.33
2019-03-04T04:10:50.612Z,985.24
2019-03-04T04:11:50.584Z,985.26
2019-03-04T04:12:50.608Z,985.21
2019-03-04T04:13:50.585Z,985.15
2019-03-04T04:14:50.549Z,985.16
2019-03-04T04:15:50.584Z,985.16
2019-03-04T04:16:50.525Z,985.17
2019-03-04T04:17:50.516Z,985.17
2019-03-04T04:18:50.506Z,985.10
2019-03-04T04:19:52.943Z,985.08
2019-03-04T04:20:50.490Z,985.05
2019-03-04T04:21:50.519Z,984.96
2019-03-04T04:22:50.458Z,984.97
2019-03-04T04:23:50.449Z,985.02
2019-03-04T04:24:50.470Z,984.92
2019-03-04T04:25:50.441Z,984.92
2019-03-04T04:26:50.443Z,984.95
2019-03-04T04:27:50.410Z,984.95
2019-03-04T04:28:51.289Z,984.88
2019-03-04T04:29:50.389Z,984.83
2019-03-04T04:30:50.390Z,984.95
2019-03-04T04:31:50.391Z,984.94
2019-03-04T04:32:50.349Z,984.88
2019-03-04T04:33:50.343Z,984.92
2019-03-04T04:34:50.334Z,984.89
2019-03-04T04:35:50.329Z,984.95
2019-03-04T04:36:50.308Z,984.90
2019-03-04T04:37:50.324Z,984.84
2019-03-04T04:38:50.297Z,984.88
2019-03-04T04:39:50.280Z,984.84
2019-03-04T04:40:50.266Z,984.76
2019-03-04T04:41:50.255Z,984.83
2019-03-04T04:42:50.286Z,984.69
2019-03-04T04:43:50.228Z,984.68
2019-03-04T04:44:50.221Z,984.63
2019-03-04T04:45:50.221Z,984.59
2019-03-04T04:46:50.211Z,984.60
2019-03-04T04:47:50.218Z,984.53
2019-03-04T04:48:50.183Z,984.60
2019-03-04T04:49:50.173Z,984.51
2019-03-04T04:50:50.163Z,984.44
2019-03-04T04:51:50.148Z,984.45
2019-03-04T04:52:50.129Z,984.53
2019-03-04T04:53:50.160Z,984.51
2019-03-04T04:54:50.140Z,984.49
2019-03-04T04:55:50.098Z,984.43
2019-03-04T04:56:50.086Z,984.45
2019-03-04T04:57:50.086Z,984.33
2019-03-04T04:58:50.099Z,984.37
2019-03-04T04:59:50.060Z,984.37
2019-03-04T05:00:50.073Z,984.36
2019-03-04T05:01:50.044Z,984.37
2019-03-04T05:02:50.024Z,984.26
2019-03-04T05:03:50.061Z,984.31
2019-03-04T05:04:50.003Z,984.23
2019-03-04T05:05:49.990Z,984.22
2019-03-04T05:06:49.983Z,984.16
2019-03-04T05:07:49.981Z,984.10
2019-03-04T05:08:49.956Z,984.13
2019-03-04T05:09:49.993Z,984.05
2019-03-04T05:10:49.959Z,984.14
2019-03-04T05:11:49.924Z,984.05
2019-03-04T05:12:49.928Z,984.04
2019-03-04T05:13:49.906Z,984.03
2019-03-04T05:14:49.919Z,983.92
2019-03-04T05:15:49.893Z,983.96
2019-03-04T05:16:49.873Z,983.96
2019-03-04T05:17:49.882Z,983.95
2019-03-04T05:18:49.846Z,983.94
2019-03-04T05:19:49.868Z,983.94
2019-03-04T05:20:49.840Z,983.95
2019-03-04T05:21:49.840Z,983.93
2019-03-04T05:22:49.807Z,983.92
2019-03-04T05:23:49.798Z,983.93
2019-03-04T05:24:49.805Z,983.88
2019-03-04T05:25:49.775Z,983.86
2019-03-04T05:26:49.766Z,983.83
2019-03-04T05:27:49.771Z,983.88
2019-03-04T05:28:49.742Z,983.80
2019-03-04T05:29:49.750Z,983.75
2019-03-04T05:30:49.722Z,983.78
2019-03-04T05:31:49.715Z,983.70
2019-03-04T05:32:49.696Z,983.62
2019-03-04T05:33:49.685Z,983.63
2019-03-04T05:34:49.745Z,983.52
2019-03-04T05:35:49.661Z,983.46
2019-03-04T05:36:49.657Z,983.45
2019-03-04T05:37:49.647Z,983.48
2019-03-04T05:38:49.646Z,983.54
2019-03-04T05:39:49.639Z,983.52
2019-03-04T05:40:49.632Z,983.41
2019-03-04T05:41:49.625Z,983.38
2019-03-04T05:42:49.591Z,983.35
2019-03-04T05:43:49.583Z,983.41
2019-03-04T05:44:49.614Z,983.36
2019-03-04T05:45:49.582Z,983.42
2019-03-04T05:46:49.554Z,983.40
2019-03-04T05:47:49.538Z,983.37
2019-03-04T05:48:49.524Z,983.38
2019-03-04T05:49:49.520Z,983.40
2019-03-04T05:50:49.530Z,983.35
2019-03-04T05:51:49.487Z,983.42
2019-03-04T05:52:49.522Z,983.41
2019-03-04T05:53:49.475Z,983.39
2019-03-04T05:54:49.455Z,983.46
2019-03-04T05:55:49.460Z,983.43
2019-03-04T05:56:49.452Z,983.43
2019-03-04T05:57:49.422Z,983.39
2019-03-04T05:58:49.420Z,983.44
2019-03-04T05:59:49.423Z,983.38
2019-03-04T06:00:49.403Z,983.36
2019-03-04T06:01:49.405Z,983.38
2019-03-04T06:02:49.394Z,983.35
2019-03-04T06:03:49.356Z,983.48
2019-03-04T06:04:49.346Z,983.40
2019-03-04T06:05:49.341Z,983.50
2019-03-04T06:06:49.360Z,983.42
2019-03-04T06:07:49.324Z,983.36
2019-03-04T06:08:49.312Z,983.40
2019-03-04T06:09:49.297Z,983.39
2019-03-04T06:10:49.283Z,983.37
2019-03-04T06:11:49.289Z,983.38
2019-03-04T06:12:49.293Z,983.39
2019-03-04T06:13:49.311Z,983.41
2019-03-04T06:14:49.262Z,983.35
2019-03-04T06:15:49.235Z,983.39
2019-03-04T06:16:49.237Z,983.29
2019-03-04T06:17:49.206Z,983.28
2019-03-04T06:18:49.213Z,983.24
2019-03-04T06:19:49.285Z,983.26
2019-03-04T06:20:49.179Z,983.16
2019-03-04T06:21:49.167Z,983.17
2019-03-04T06:22:49.158Z,983.11
2019-03-04T06:23:49.159Z,983.11
2019-03-04T06:24:49.146Z,983.16
2019-03-04T06:25:49.142Z,983.18
2019-03-04T06:26:49.107Z,983.11
2019-03-04T06:27:49.099Z,983.04
2019-03-04T06:28:49.104Z,983.12
2019-03-04T06:29:49.081Z,983.05
2019-03-04T06:30:49.433Z,982.99
2019-03-04T06:31:49.066Z,982.91
2019-03-04T06:32:49.050Z,982.86
2019-03-04T06:33:49.039Z,982.93
2019-03-04T06:34:49.021Z,982.88
2019-03-04T06:35:49.054Z,982.88
2019-03-04T06:36:49.010Z,982.74
2019-03-04T06:37:49.046Z,982.71
2019-03-04T06:38:48.981Z,982.69
2019-03-04T06:39:48.990Z,982.65
2019-03-04T06:40:49.004Z,982.66
2019-03-04T06:41:48.958Z,982.55
2019-03-04T06:42:48.949Z,982.56
2019-03-04T06:43:48.922Z,982.48
2019-03-04T06:44:48.912Z,982.47
2019-03-04T06:45:48.950Z,982.37
2019-03-04T06:46:48.896Z,982.30
2019-03-04T06:47:48.893Z,982.30
2019-03-04T06:48:48.901Z,982.30
2019-03-04T06:49:48.858Z,982.26
2019-03-04T06:50:48.852Z,982.22
2019-03-04T06:51:48.839Z,982.22
2019-03-04T06:52:48.823Z,982.09
2019-03-04T06:53:48.838Z,982.05
2019-03-04T06:54:48.811Z,982.07
2019-03-04T06:55:48.800Z,981.93
2019-03-04T06:56:48.783Z,981.93
2019-03-04T06:57:48.851Z,981.78
2019-03-04T06:58:48.805Z,981.70
2019-03-04T06:59:48.750Z,981.76
2019-03-04T07:00:48.744Z,981.72
2019-03-04T07:01:48.741Z,981.80
2019-03-04T07:02:48.729Z,981.68
2019-03-04T07:03:48.720Z,981.80
2019-03-04T07:04:48.695Z,981.77
2019-03-04T07:05:48.697Z,981.67
2019-03-04T07:06:48.699Z,981.68
2019-03-04T07:07:48.665Z,981.64
2019-03-04T07:08:48.701Z,981.61
2019-03-04T07:09:48.663Z,981.59
2019-03-04T07:10:48.641Z,981.48
2019-03-04T07:11:48.620Z,981.43
2019-03-04T07:12:48.620Z,981.49
2019-03-04T07:13:48.601Z,981.57
2019-03-04T07:14:48.731Z,981.61
2019-03-04T07:15:48.580Z,981.60
2019-03-04T07:16:48.672Z,981.58
2019-03-04T07:17:48.583Z,981.56
2019-03-04T07:18:48.584Z,981.56
2019-03-04T07:19:48.572Z,981.61
2019-03-04T07:20:48.562Z,981.49
2019-03-04T07:21:48.535Z,981.48
2019-03-04T07:22:48.681Z,981.57
2019-03-04T07:23:48.489Z,981.55
2019-03-04T07:24:48.612Z,981.55
2019-03-04T07:25:48.465Z,981.50
2019-03-04T07:26:48.475Z,981.45
2019-03-04T07:27:48.460Z,981.36
2019-03-04T07:28:48.510Z,981.43
2019-03-04T07:29:48.470Z,981.41
2019-03-04T07:30:48.431Z,981.36
2019-03-04T07:31:48.409Z,981.44
2019-03-04T07:32:48.431Z,981.44
2019-03-04T07:33:48.386Z,981.42
2019-03-04T07:34:48.459Z,981.34
2019-03-04T07:35:48.370Z,981.23
2019-03-04T07:36:48.365Z,981.23
2019-03-04T07:37:48.329Z,981.18
2019-03-04T07:38:48.335Z,981.22
2019-03-04T07:39:48.311Z,981.23
2019-03-04T07:40:48.336Z,981.22
2019-03-04T07:41:48.302Z,981.12
2019-03-04T07:42:48.297Z,981.22
2019-03-04T07:43:48.261Z,981.15
2019-03-04T07:44:48.301Z,981.19
2019-03-04T07:45:48.301Z,981.09
2019-03-04T07:46:48.230Z,981.11
2019-03-04T07:47:48.276Z,981.07
2019-03-04T07:48:48.212Z,981.06
2019-03-04T07:49:48.204Z,981.03
2019-03-04T07:50:48.208Z,981.02
2019-03-04T07:51:48.206Z,980.97
2019-03-04T07:52:48.180Z,980.93
2019-03-04T07:53:48.172Z,980.92
2019-03-04T07:54:48.146Z,980.84
2019-03-04T07:55:48.142Z,980.76
2019-03-04T07:56:48.181Z,980.70
2019-03-04T07:57:48.120Z,980.76
2019-03-04T07:58:48.097Z,980.68
2019-03-04T07:59:48.137Z,980.62
2019-03-04T08:00:48.088Z,980.64
2019-03-04T08:01:48.099Z,980.75
2019-03-04T08:02:48.065Z,980.66
2019-03-04T08:03:48.051Z,980.65
2019-03-04T08:04:48.105Z,980.70
2019-03-04T08:05:48.026Z,980.64
2019-03-04T08:06:48.024Z,980.74
2019-03-04T08:07:48.073Z,980.77
2019-03-04T08:08:48.038Z,980.73
2019-03-04T08:09:48.062Z,980.76
2019-03-04T08:10:47.988Z,980.66
2019-03-04T08:11:47.965Z,980.64
2019-03-04T08:12:47.972Z,980.63
2019-03-04T08:13:48.015Z,980.57
2019-03-04T08:14:47.935Z,980.47
2019-03-04T08:15:47.918Z,980.51
2019-03-04T08:16:47.911Z,980.50
2019-03-04T08:17:47.928Z,980.54
2019-03-04T08:18:47.887Z,980.59
2019-03-04T08:19:47.881Z,980.48
2019-03-04T08:20:47.870Z,980.53
2019-03-04T08:21:47.851Z,980.52
2019-03-04T08:22:47.840Z,980.45
2019-03-04T08:23:47.931Z,980.43
2019-03-04T08:24:47.838Z,980.38
2019-03-04T08:25:47.810Z,980.38
2019-03-04T08:26:47.830Z,980.39
2019-03-04T08:27:47.791Z,980.42
2019-03-04T08:28:47.800Z,980.31
2019-03-04T08:29:47.778Z,980.35
2019-03-04T08:30:47.755Z,980.33
2019-03-04T08:31:47.771Z,980.28
2019-03-04T08:32:47.763Z,980.42
2019-03-04T08:33:47.762Z,980.38
2019-03-04T08:34:47.737Z,980.40
2019-03-04T08:35:47.704Z,980.40
2019-03-04T08:36:47.688Z,980.33
2019-03-04T08:37:47.707Z,980.31
2019-03-04T08:38:47.674Z,980.27
2019-03-04T08:39:47.671Z,980.15
2019-03-04T08:40:47.693Z,980.10
2019-03-04T08:41:47.634Z,980.20
2019-03-04T08:42:47.638Z,980.20
2019-03-04T08:43:47.615Z,980.30
2019-03-04T08:44:47.659Z,980.24
2019-03-04T08:45:47.588Z,980.35
2019-03-04T08:46:47.573Z,980.37
2019-03-04T08:47:47.572Z,980.32
2019-03-04T08:48:47.615Z,980.39
2019-03-04T08:49:47.628Z,980.33
2019-03-04T08:50:47.540Z,980.32
2019-03-04T08:51:47.536Z,980.22
2019-03-04T08:52:47.548Z,980.44
2019-03-04T08:53:47.525Z,980.34
2019-03-04T08:54:47.506Z,980.31
2019-03-04T08:55:47.530Z,980.25
2019-03-04T08:56:47.469Z,980.26
2019-03-04T08:57:47.465Z,980.15
2019-03-04T08:58:47.456Z,980.01
2019-03-04T08:59:47.437Z,979.88
2019-03-04T09:00:47.457Z,979.77
2019-03-04T09:01:47.414Z,979.69
2019-03-04T09:02:47.405Z,979.62
2019-03-04T09:03:47.390Z,979.58
2019-03-04T09:04:47.393Z,979.64
2019-03-04T09:05:47.416Z,979.70
2019-03-04T09:06:47.360Z,979.56
2019-03-04T09:07:47.382Z,979.70
2019-03-04T09:08:47.416Z,979.50
2019-03-04T09:09:47.400Z,979.31
2019-03-04T09:10:47.331Z,979.31
2019-03-04T09:11:47.348Z,979.04
2019-03-04T09:12:47.307Z,979.11
2019-03-04T09:13:47.352Z,979.21
2019-03-04T09:14:48.136Z,979.23
2019-03-04T09:15:47.260Z,979.14
2019-03-04T09:16:47.248Z,979.24
2019-03-04T09:17:47.314Z,979.18
2019-03-04T09:18:47.295Z,979.32
2019-03-04T09:19:47.252Z,979.19
2019-03-04T09:20:47.205Z,979.30
2019-03-04T09:21:47.222Z,979.28
2019-03-04T09:22:47.214Z,979.43
2019-03-04T09:23:47.190Z,979.32
2019-03-04T09:24:47.186Z,979.11
2019-03-04T09:25:47.216Z,978.95
2019-03-04T09:26:47.159Z,979.19
2019-03-04T09:27:47.130Z,979.15
2019-03-04T09:28:47.248Z,979.28
2019-03-04T09:29:47.132Z,979.22
2019-03-04T09:30:47.118Z,979.22
2019-03-04T09:31:47.086Z,979.28
2019-03-04T09:32:47.096Z,979.26
2019-03-04T09:33:47.078Z,979.27
2019-03-04T09:34:47.090Z,979.39
2019-03-04T09:35:47.047Z,979.46
2019-03-04T09:36:47.050Z,979.44
2019-03-04T09:37:47.026Z,979.43
2019-03-04T09:38:47.024Z,979.49
2019-03-04T09:39:47.016Z,979.52
2019-03-04T09:40:47.008Z,979.40
2019-03-04T09:41:46.977Z,979.37
2019-03-04T09:42:47.007Z,979.41
2019-03-04T09:43:46.975Z,979.31
2019-03-04T09:44:46.945Z,979.14
2019-03-04T09:45:46.979Z,979.10
2019-03-04T09:46:46.931Z,978.97
2019-03-04T09:47:46.914Z,978.77
2019-03-04T09:48:46.914Z,978.64
2019-03-04T09:49:46.907Z,978.53
2019-03-04T09:50:46.907Z,978.60
2019-03-04T09:51:46.874Z,978.42
2019-03-04T09:52:46.857Z,978.50
2019-03-04T09:53:46.860Z,978.42
2019-03-04T09:54:46.843Z,978.38
2019-03-04T09:55:46.845Z,978.50
2019-03-04T09:56:46.846Z,978.45
2019-03-04T09:57:46.809Z,978.37
2019-03-04T09:58:46.804Z,978.46
2019-03-04T09:59:47.095Z,978.35
2019-03-04T10:00:46.775Z,978.64
2019-03-04T10:01:46.765Z,978.71
2019-03-04T10:02:46.757Z,978.97
2019-03-04T10:03:46.740Z,978.81
2019-03-04T10:04:46.766Z,978.96
2019-03-04T10:05:46.724Z,979.09
2019-03-04T10:06:46.714Z,978.98
2019-03-04T10:07:46.697Z,978.97
2019-03-04T10:08:46.697Z,978.99
2019-03-04T10:09:46.706Z,978.78
2019-03-04T10:10:46.663Z,978.87
2019-03-04T10:11:46.658Z,978.77
2019-03-04T10:12:46.647Z,978.73
2019-03-04T10:13:46.630Z,978.78
2019-03-04T10:14:46.622Z,978.85
2019-03-04T10:15:46.635Z,978.92
2019-03-04T10:16:46.618Z,978.96
2019-03-04T10:17:46.621Z,978.97
2019-03-04T10:18:46.575Z,979.01
2019-03-04T10:19:46.573Z,978.84
2019-03-04T10:20:46.585Z,978.88
2019-03-04T10:21:46.553Z,978.78
2019-03-04T10:22:46.539Z,978.64
2019-03-04T10:23:46.519Z,978.86
2019-03-04T10:24:46.515Z,978.79
2019-03-04T10:25:46.530Z,978.84
2019-03-04T10:26:46.490Z,978.89
2019-03-04T10:27:46.496Z,978.91
2019-03-04T10:28:46.463Z,979.09
2019-03-04T10:29:46.456Z,978.94
2019-03-04T10:30:46.460Z,979.02
2019-03-04T10:31:46.521Z,978.91
2019-03-04T10:32:46.420Z,978.93
2019-03-04T10:33:46.424Z,978.93
2019-03-04T10:34:46.408Z,979.23
2019-03-04T10:35:46.392Z,979.21
2019-03-04T10:36:46.395Z,979.07
2019-03-04T10:37:46.404Z,979.08
2019-03-04T10:38:46.361Z,979.22
2019-03-04T10:39:46.400Z,979.21
2019-03-04T10:40:46.338Z,979.07
2019-03-04T10:41:46.409Z,979.03
2019-03-04T10:42:46.325Z,979.08
2019-03-04T10:43:46.303Z,979.27
2019-03-04T10:44:46.304Z,979.20
2019-03-04T10:45:46.310Z,979.19
2019-03-04T10:46:46.275Z,979.16
2019-03-04T10:47:46.307Z,979.04
2019-03-04T10:48:46.244Z,978.99
2019-03-04T10:49:46.241Z,979.08
2019-03-04T10:50:46.284Z,978.98
2019-03-04T10:51:46.217Z,979.10
2019-03-04T10:52:46.243Z,979.11
2019-03-04T10:53:46.202Z,979.17
2019-03-04T10:54:46.176Z,979.20
2019-03-04T10:55:46.181Z,979.18
2019-03-04T10:56:46.169Z,979.25
2019-03-04T10:57:46.179Z,979.12
2019-03-04T10:58:46.135Z,979.24
2019-03-04T10:59:46.132Z,979.25
2019-03-04T11:00:46.121Z,979.23
2019-03-04T11:01:46.113Z,979.45
2019-03-04T11:02:46.094Z,979.21
2019-03-04T11:03:46.110Z,979.30
2019-03-04T11:04:46.072Z,979.31
2019-03-04T11:05:46.060Z,979.33
2019-03-04T11:06:46.081Z,979.35
2019-03-04T11:07:46.063Z,979.20
2019-03-04T11:08:46.044Z,979.26
2019-03-04T11:09:46.037Z,979.30
2019-03-04T11:10:46.018Z,979.24
2019-03-04T11:11:46.013Z,979.18
2019-03-04T11:12:46.006Z,979.14
2019-03-04T11:13:46.007Z,979.11
2019-03-04T11:14:45.960Z,979.10
2019-03-04T11:15:45.953Z,979.19
2019-03-04T11:16:45.936Z,979.52
2019-03-04T11:17:45.932Z,980.27
2019-03-04T11:18:45.941Z,980.25
2019-03-04T11:19:45.929Z,980.09
2019-03-04T11:20:45.892Z,980.04
2019-03-04T11:21:45.889Z,980.22
2019-03-04T11:22:45.876Z,980.15
2019-03-04T11:23:45.860Z,980.00
2019-03-04T11:24:45.875Z,980.13
2019-03-04T11:25:45.857Z,980.05
2019-03-04T11:26:45.866Z,980.17
2019-03-04T11:27:45.859Z,980.24
2019-03-04T11:28:45.822Z,980.22
2019-03-04T11:29:45.858Z,980.22
2019-03-04T11:30:45.816Z,980.19
2019-03-04T11:31:45.801Z,980.26
2019-03-04T11:32:45.776Z,980.13
2019-03-04T11:33:45.752Z,980.16
2019-03-04T11:34:45.747Z,980.16
2019-03-04T11:35:45.787Z,980.42
2019-03-04T11:36:45.724Z,980.36
2019-03-04T11:37:45.743Z,980.24
2019-03-04T11:38:45.706Z,980.16
2019-03-04T11:39:45.802Z,980.25
2019-03-04T11:40:45.705Z,980.31
2019-03-04T11:41:45.680Z,980.13
2019-03-04T11:42:45.658Z,980.11
2019-03-04T11:43:45.647Z,980.28
2019-03-04T11:44:45.637Z,980.32
2019-03-04T11:45:45.697Z,980.24
2019-03-04T11:46:45.613Z,980.23
2019-03-04T11:47:45.621Z,980.17
2019-03-04T11:48:45.621Z,980.21
2019-03-04T11:49:45.601Z,980.34
2019-03-04T11:50:45.575Z,980.17
2019-03-04T11:51:45.610Z,980.08
2019-03-04T11:52:45.555Z,980.05
2019-03-04T11:53:45.565Z,980.03
2019-03-04T11:54:45.558Z,979.92
2019-03-04T11:55:45.533Z,979.99
2019-03-04T11:56:45.583Z,979.77
2019-03-04T11:57:45.505Z,979.93
2019-03-04T11:58:45.483Z,980.02
2019-03-04T11:59:45.471Z,979.82
2019-03-04T12:00:45.488Z,979.87
2019-03-04T12:01:45.483Z,979.90
2019-03-04T12:02:45.434Z,979.96
2019-03-04T12:03:45.423Z,979.84
2019-03-04T12:04:45.430Z,979.72
2019-03-04T12:05:45.400Z,979.82
2019-03-04T12:06:45.405Z,979.75
2019-03-04T12:07:45.412Z,979.73
2019-03-04T12:08:45.374Z,979.63
2019-03-04T12:09:45.372Z,979.78
2019-03-04T12:10:45.369Z,979.74
2019-03-04T12:11:45.333Z,979.71
2019-03-04T12:12:45.361Z,979.80
2019-03-04T12:13:45.320Z,979.68
2019-03-04T12:14:45.304Z,979.78
2019-03-04T12:15:45.319Z,979.68
2019-03-04T12:16:45.289Z,979.49
2019-03-04T12:17:45.310Z,979.59
2019-03-04T12:18:45.286Z,979.48
2019-03-04T12:19:45.254Z,979.49
2019-03-04T12:20:45.239Z,979.47
2019-03-04T12:21:45.230Z,979.35
2019-03-04T12:22:45.221Z,979.33
2019-03-04T12:23:45.235Z,979.33
2019-03-04T12:24:45.222Z,979.18
2019-03-04T12:25:45.192Z,979.39
2019-03-04T12:26:45.173Z,979.34
2019-03-04T12:27:45.184Z,979.38
2019-03-04T12:28:45.208Z,979.39